sensor_id;sensor_type;location;lat;lon;timestamp;temperature;humidity
43987;DHT22;29650;47.378;8.300;2023-08-07T00:02:09;13.10;99.90
43987;DHT22;29650;47.378;8.300;2023-08-07T00:04:36;13.20;99.90
43987;DHT22;29650;47.378;8.300;2023-08-07T00:07:04;13.10;99.90
43987;DHT22;29650;47.378;8.300;2023-08-07T00:09:32;13.10;99.90
43987;DHT22;29650;47.378;8.300;2023-08-07T00:11:59;13.10;99.90
43987;DHT22;29650;47.378;8.300;2023-08-07T00:14:26;13.30;99.90
43987;DHT22;29650;47.378;8.300;2023-08-07T00:16:53;13.20;99.90
43987;DHT22;29650;47.378;8.300;2023-08-07T00:19:20;13.20;99.90
43987;DHT22;29650;47.378;8.300;2023-08-07T00:21:47;13.20;99.90
43987;DHT22;29650;47.378;8.300;2023-08-07T00:24:13;13.30;99.90
43987;DHT22;29650;47.378;8.300;2023-08-07T00:26:42;13.40;99.90
43987;DHT22;29650;47.378;8.300;2023-08-07T00:29:09;13.50;99.90
43987;DHT22;29650;47.378;8.300;2023-08-07T00:31:38;13.50;99.90
43987;DHT22;29650;47.378;8.300;2023-08-07T00:34:04;13.60;99.90
43987;DHT22;29650;47.378;8.300;2023-08-07T00:36:31;13.70;99.90
43987;DHT22;29650;47.378;8.300;2023-08-07T00:39:00;13.60;99.90
43987;DHT22;29650;47.378;8.300;2023-08-07T00:41:29;13.60;99.90
43987;DHT22;29650;47.378;8.300;2023-08-07T00:43:57;13.80;99.90
43987;DHT22;29650;47.378;8.300;2023-08-07T00:46:24;13.70;98.30
43987;DHT22;29650;47.378;8.300;2023-08-07T00:48:51;13.80;95.80
43987;DHT22;29650;47.378;8.300;2023-08-07T00:51:19;13.80;95.30
43987;DHT22;29650;47.378;8.300;2023-08-07T00:53:48;13.90;95.00
43987;DHT22;29650;47.378;8.300;2023-08-07T00:56:15;13.80;94.80
43987;DHT22;29650;47.378;8.300;2023-08-07T00:58:43;13.80;94.20
43987;DHT22;29650;47.378;8.300;2023-08-07T01:01:11;13.80;95.10
43987;DHT22;29650;47.378;8.300;2023-08-07T01:03:38;13.80;94.80
43987;DHT22;29650;47.378;8.300;2023-08-07T01:06:06;13.80;94.70
43987;DHT22;29650;47.378;8.300;2023-08-07T01:08:33;13.80;95.90
43987;DHT22;29650;47.378;8.300;2023-08-07T01:11:10;13.90;95.80
43987;DHT22;29650;47.378;8.300;2023-08-07T01:13:47;13.90;95.80
43987;DHT22;29650;47.378;8.300;2023-08-07T01:16:24;13.80;96.90
43987;DHT22;29650;47.378;8.300;2023-08-07T01:18:53;13.90;97.70
43987;DHT22;29650;47.378;8.300;2023-08-07T01:21:21;13.90;98.80
43987;DHT22;29650;47.378;8.300;2023-08-07T01:23:50;13.80;97.60
43987;DHT22;29650;47.378;8.300;2023-08-07T01:26:19;13.80;99.90
43987;DHT22;29650;47.378;8.300;2023-08-07T01:28:51;13.80;99.90
43987;DHT22;29650;47.378;8.300;2023-08-07T01:31:22;13.70;99.90
43987;DHT22;29650;47.378;8.300;2023-08-07T01:33:57;13.70;99.90
43987;DHT22;29650;47.378;8.300;2023-08-07T01:36:27;13.60;99.90
43987;DHT22;29650;47.378;8.300;2023-08-07T01:38:57;13.50;99.90
43987;DHT22;29650;47.378;8.300;2023-08-07T01:41:24;13.20;99.90
43987;DHT22;29650;47.378;8.300;2023-08-07T01:43:51;13.40;99.90
43987;DHT22;29650;47.378;8.300;2023-08-07T01:46:18;13.30;99.90
43987;DHT22;29650;47.378;8.300;2023-08-07T01:48:45;13.30;99.90
43987;DHT22;29650;47.378;8.300;2023-08-07T01:51:12;13.30;99.90
43987;DHT22;29650;47.378;8.300;2023-08-07T01:53:39;13.40;99.90
43987;DHT22;29650;47.378;8.300;2023-08-07T01:56:07;13.50;99.90
43987;DHT22;29650;47.378;8.300;2023-08-07T01:58:34;13.50;99.90
43987;DHT22;29650;47.378;8.300;2023-08-07T02:01:01;13.40;99.90
43987;DHT22;29650;47.378;8.300;2023-08-07T02:03:28;13.40;99.90
43987;DHT22;29650;47.378;8.300;2023-08-07T02:05:55;13.30;99.90
43987;DHT22;29650;47.378;8.300;2023-08-07T02:08:22;13.20;99.90
43987;DHT22;29650;47.378;8.300;2023-08-07T02:10:49;13.20;99.90
43987;DHT22;29650;47.378;8.300;2023-08-07T02:13:17;13.20;99.90
43987;DHT22;29650;47.378;8.300;2023-08-07T02:15:44;13.10;99.90
43987;DHT22;29650;47.378;8.300;2023-08-07T02:18:11;13.10;99.90
43987;DHT22;29650;47.378;8.300;2023-08-07T02:20:38;13.10;99.90
43987;DHT22;29650;47.378;8.300;2023-08-07T02:23:05;13.10;99.90
43987;DHT22;29650;47.378;8.300;2023-08-07T02:25:32;13.20;99.90
43987;DHT22;29650;47.378;8.300;2023-08-07T02:27:58;13.20;99.90
43987;DHT22;29650;47.378;8.300;2023-08-07T02:30:27;13.20;99.90
43987;DHT22;29650;47.378;8.300;2023-08-07T02:32:54;13.20;99.90
43987;DHT22;29650;47.378;8.300;2023-08-07T02:35:20;13.20;99.90
43987;DHT22;29650;47.378;8.300;2023-08-07T02:37:47;13.20;99.90
43987;DHT22;29650;47.378;8.300;2023-08-07T02:40:14;13.00;99.90
43987;DHT22;29650;47.378;8.300;2023-08-07T02:42:43;13.00;99.90
43987;DHT22;29650;47.378;8.300;2023-08-07T02:45:10;13.10;99.90
43987;DHT22;29650;47.378;8.300;2023-08-07T02:47:38;13.00;99.90
43987;DHT22;29650;47.378;8.300;2023-08-07T02:50:06;13.00;99.90
43987;DHT22;29650;47.378;8.300;2023-08-07T02:52:33;13.00;99.90
43987;DHT22;29650;47.378;8.300;2023-08-07T02:55:00;13.10;99.90
43987;DHT22;29650;47.378;8.300;2023-08-07T02:57:26;12.90;99.90
43987;DHT22;29650;47.378;8.300;2023-08-07T02:59:53;12.90;99.90
43987;DHT22;29650;47.378;8.300;2023-08-07T03:02:20;12.80;99.90
43987;DHT22;29650;47.378;8.300;2023-08-07T03:04:48;12.80;99.90
43987;DHT22;29650;47.378;8.300;2023-08-07T03:07:15;12.80;99.90
43987;DHT22;29650;47.378;8.300;2023-08-07T03:09:45;12.90;99.90
43987;DHT22;29650;47.378;8.300;2023-08-07T03:12:12;12.80;99.90
43987;DHT22;29650;47.378;8.300;2023-08-07T03:14:39;13.00;99.90
43987;DHT22;29650;47.378;8.300;2023-08-07T03:17:06;12.90;99.90
43987;DHT22;29650;47.378;8.300;2023-08-07T03:19:33;12.80;99.90
43987;DHT22;29650;47.378;8.300;2023-08-07T03:22:01;12.60;99.90
43987;DHT22;29650;47.378;8.300;2023-08-07T03:24:28;12.80;99.90
43987;DHT22;29650;47.378;8.300;2023-08-07T03:26:55;12.90;99.90
43987;DHT22;29650;47.378;8.300;2023-08-07T03:29:22;12.80;99.90
43987;DHT22;29650;47.378;8.300;2023-08-07T03:31:49;12.80;99.90
43987;DHT22;29650;47.378;8.300;2023-08-07T03:34:15;12.70;99.90
43987;DHT22;29650;47.378;8.300;2023-08-07T03:36:42;12.60;99.90
43987;DHT22;29650;47.378;8.300;2023-08-07T03:39:11;12.60;99.90
43987;DHT22;29650;47.378;8.300;2023-08-07T03:41:38;12.70;99.90
43987;DHT22;29650;47.378;8.300;2023-08-07T03:44:05;12.70;99.90
43987;DHT22;29650;47.378;8.300;2023-08-07T03:46:32;12.60;99.90
43987;DHT22;29650;47.378;8.300;2023-08-07T03:48:59;12.70;99.90
43987;DHT22;29650;47.378;8.300;2023-08-07T03:51:26;12.90;99.90
43987;DHT22;29650;47.378;8.300;2023-08-07T03:53:53;12.70;99.90
43987;DHT22;29650;47.378;8.300;2023-08-07T03:56:21;12.60;99.90
43987;DHT22;29650;47.378;8.300;2023-08-07T03:58:48;12.70;99.90
43987;DHT22;29650;47.378;8.300;2023-08-07T04:01:15;12.80;99.90
43987;DHT22;29650;47.378;8.300;2023-08-07T04:03:42;12.70;99.90
43987;DHT22;29650;47.378;8.300;2023-08-07T04:06:09;12.60;99.90
43987;DHT22;29650;47.378;8.300;2023-08-07T04:08:41;12.60;99.90
43987;DHT22;29650;47.378;8.300;2023-08-07T04:11:08;12.50;99.90
43987;DHT22;29650;47.378;8.300;2023-08-07T04:13:37;12.60;99.90
43987;DHT22;29650;47.378;8.300;2023-08-07T04:16:05;12.70;99.90
43987;DHT22;29650;47.378;8.300;2023-08-07T04:18:32;12.60;99.90
43987;DHT22;29650;47.378;8.300;2023-08-07T04:20:59;12.50;99.90
43987;DHT22;29650;47.378;8.300;2023-08-07T04:23:26;12.50;99.90
43987;DHT22;29650;47.378;8.300;2023-08-07T04:25:53;12.50;99.90
43987;DHT22;29650;47.378;8.300;2023-08-07T04:28:21;12.60;99.90
43987;DHT22;29650;47.378;8.300;2023-08-07T04:30:51;12.60;99.90
43987;DHT22;29650;47.378;8.300;2023-08-07T04:33:18;12.50;99.90
43987;DHT22;29650;47.378;8.300;2023-08-07T04:35:45;12.60;99.90
43987;DHT22;29650;47.378;8.300;2023-08-07T04:38:13;12.50;99.90
43987;DHT22;29650;47.378;8.300;2023-08-07T04:40:44;12.60;99.90
43987;DHT22;29650;47.378;8.300;2023-08-07T04:43:11;12.50;99.90
43987;DHT22;29650;47.378;8.300;2023-08-07T04:45:38;12.60;99.90
43987;DHT22;29650;47.378;8.300;2023-08-07T04:48:07;12.50;99.90
43987;DHT22;29650;47.378;8.300;2023-08-07T04:50:34;12.60;99.90
43987;DHT22;29650;47.378;8.300;2023-08-07T04:53:01;12.70;99.90
43987;DHT22;29650;47.378;8.300;2023-08-07T04:55:28;12.60;99.90
43987;DHT22;29650;47.378;8.300;2023-08-07T04:57:55;12.60;99.90
43987;DHT22;29650;47.378;8.300;2023-08-07T05:00:22;12.60;99.90
43987;DHT22;29650;47.378;8.300;2023-08-07T05:02:49;12.70;99.90
43987;DHT22;29650;47.378;8.300;2023-08-07T05:05:17;12.70;99.90
43987;DHT22;29650;47.378;8.300;2023-08-07T05:07:46;12.70;99.90
43987;DHT22;29650;47.378;8.300;2023-08-07T05:10:13;12.50;99.90
43987;DHT22;29650;47.378;8.300;2023-08-07T05:12:40;12.50;99.90
43987;DHT22;29650;47.378;8.300;2023-08-07T05:15:07;12.50;99.90
43987;DHT22;29650;47.378;8.300;2023-08-07T05:17:34;12.70;99.90
43987;DHT22;29650;47.378;8.300;2023-08-07T05:20:01;12.60;99.90
43987;DHT22;29650;47.378;8.300;2023-08-07T05:22:30;12.60;99.90
43987;DHT22;29650;47.378;8.300;2023-08-07T05:24:57;12.60;99.90
43987;DHT22;29650;47.378;8.300;2023-08-07T05:27:24;12.60;99.90
43987;DHT22;29650;47.378;8.300;2023-08-07T05:29:51;12.50;99.90
43987;DHT22;29650;47.378;8.300;2023-08-07T05:32:18;12.60;99.90
43987;DHT22;29650;47.378;8.300;2023-08-07T05:34:45;12.60;99.90
43987;DHT22;29650;47.378;8.300;2023-08-07T05:37:12;12.50;99.90
43987;DHT22;29650;47.378;8.300;2023-08-07T05:39:40;12.50;99.90
43987;DHT22;29650;47.378;8.300;2023-08-07T05:42:07;12.50;99.90
43987;DHT22;29650;47.378;8.300;2023-08-07T05:44:36;12.40;99.90
43987;DHT22;29650;47.378;8.300;2023-08-07T05:47:03;12.40;99.90
43987;DHT22;29650;47.378;8.300;2023-08-07T05:49:30;12.50;99.90
43987;DHT22;29650;47.378;8.300;2023-08-07T05:51:57;12.60;99.90
43987;DHT22;29650;47.378;8.300;2023-08-07T05:54:24;12.50;99.90
43987;DHT22;29650;47.378;8.300;2023-08-07T05:56:52;12.70;99.90
43987;DHT22;29650;47.378;8.300;2023-08-07T05:59:19;12.80;99.90
43987;DHT22;29650;47.378;8.300;2023-08-07T06:01:46;13.10;99.90
43987;DHT22;29650;47.378;8.300;2023-08-07T06:04:13;13.10;99.90
43987;DHT22;29650;47.378;8.300;2023-08-07T06:06:40;13.20;99.90
43987;DHT22;29650;47.378;8.300;2023-08-07T06:09:08;13.20;99.90
43987;DHT22;29650;47.378;8.300;2023-08-07T06:11:35;13.30;99.90
43987;DHT22;29650;47.378;8.300;2023-08-07T06:14:03;13.40;99.90
43987;DHT22;29650;47.378;8.300;2023-08-07T06:16:30;13.30;99.90
43987;DHT22;29650;47.378;8.300;2023-08-07T06:18:57;13.40;99.90
43987;DHT22;29650;47.378;8.300;2023-08-07T06:21:24;13.50;99.90
43987;DHT22;29650;47.378;8.300;2023-08-07T06:23:53;13.70;99.90
43987;DHT22;29650;47.378;8.300;2023-08-07T06:26:20;13.80;99.90
43987;DHT22;29650;47.378;8.300;2023-08-07T06:28:47;13.80;99.90
43987;DHT22;29650;47.378;8.300;2023-08-07T06:31:16;13.90;99.90
43987;DHT22;29650;47.378;8.300;2023-08-07T06:33:43;14.00;99.90
43987;DHT22;29650;47.378;8.300;2023-08-07T06:36:10;14.00;99.90
43987;DHT22;29650;47.378;8.300;2023-08-07T06:38:37;13.80;99.90
43987;DHT22;29650;47.378;8.300;2023-08-07T06:41:05;13.80;99.20
43987;DHT22;29650;47.378;8.300;2023-08-07T06:43:32;13.90;97.90
43987;DHT22;29650;47.378;8.300;2023-08-07T06:45:59;14.00;96.50
43987;DHT22;29650;47.378;8.300;2023-08-07T06:48:27;14.40;96.90
43987;DHT22;29650;47.378;8.300;2023-08-07T06:50:54;14.40;95.70
43987;DHT22;29650;47.378;8.300;2023-08-07T06:53:21;14.30;94.80
43987;DHT22;29650;47.378;8.300;2023-08-07T06:55:48;14.40;93.70
43987;DHT22;29650;47.378;8.300;2023-08-07T06:58:15;14.50;94.40
43987;DHT22;29650;47.378;8.300;2023-08-07T07:00:41;14.10;92.80
43987;DHT22;29650;47.378;8.300;2023-08-07T07:03:08;14.60;92.90
43987;DHT22;29650;47.378;8.300;2023-08-07T07:05:37;14.50;92.40
43987;DHT22;29650;47.378;8.300;2023-08-07T07:08:04;14.30;92.90
43987;DHT22;29650;47.378;8.300;2023-08-07T07:10:31;14.10;93.50
43987;DHT22;29650;47.378;8.300;2023-08-07T07:12:58;14.10;92.80
43987;DHT22;29650;47.378;8.300;2023-08-07T07:15:25;13.90;94.00
43987;DHT22;29650;47.378;8.300;2023-08-07T07:17:52;14.00;94.00
43987;DHT22;29650;47.378;8.300;2023-08-07T07:20:19;14.10;94.20
43987;DHT22;29650;47.378;8.300;2023-08-07T07:22:48;14.00;94.20
43987;DHT22;29650;47.378;8.300;2023-08-07T07:25:15;14.10;94.20
43987;DHT22;29650;47.378;8.300;2023-08-07T07:27:42;14.10;94.40
43987;DHT22;29650;47.378;8.300;2023-08-07T07:30:09;14.10;94.80
43987;DHT22;29650;47.378;8.300;2023-08-07T07:32:36;14.30;95.70
43987;DHT22;29650;47.378;8.300;2023-08-07T07:35:04;14.30;94.10
43987;DHT22;29650;47.378;8.300;2023-08-07T07:37:31;14.50;93.50
43987;DHT22;29650;47.378;8.300;2023-08-07T07:40:00;14.80;93.80
43987;DHT22;29650;47.378;8.300;2023-08-07T07:42:26;15.00;92.50
43987;DHT22;29650;47.378;8.300;2023-08-07T07:44:53;14.90;91.40
43987;DHT22;29650;47.378;8.300;2023-08-07T07:47:20;14.90;91.50
43987;DHT22;29650;47.378;8.300;2023-08-07T07:49:47;14.70;90.20
43987;DHT22;29650;47.378;8.300;2023-08-07T07:52:14;15.00;91.50
43987;DHT22;29650;47.378;8.300;2023-08-07T07:54:41;14.80;90.00
43987;DHT22;29650;47.378;8.300;2023-08-07T07:57:10;14.70;90.70
43987;DHT22;29650;47.378;8.300;2023-08-07T07:59:37;14.60;90.60
43987;DHT22;29650;47.378;8.300;2023-08-07T08:02:04;14.60;91.00
43987;DHT22;29650;47.378;8.300;2023-08-07T08:04:31;14.60;92.00
43987;DHT22;29650;47.378;8.300;2023-08-07T08:07:00;14.80;92.20
43987;DHT22;29650;47.378;8.300;2023-08-07T08:09:29;14.90;93.00
43987;DHT22;29650;47.378;8.300;2023-08-07T08:11:56;14.50;93.00
43987;DHT22;29650;47.378;8.300;2023-08-07T08:14:24;14.40;95.80
43987;DHT22;29650;47.378;8.300;2023-08-07T08:16:51;14.20;99.90
43987;DHT22;29650;47.378;8.300;2023-08-07T08:19:18;14.30;99.60
43987;DHT22;29650;47.378;8.300;2023-08-07T08:21:45;14.20;99.90
43987;DHT22;29650;47.378;8.300;2023-08-07T08:24:12;14.20;99.90
43987;DHT22;29650;47.378;8.300;2023-08-07T08:26:38;14.30;99.90
43987;DHT22;29650;47.378;8.300;2023-08-07T08:29:06;14.50;99.90
43987;DHT22;29650;47.378;8.300;2023-08-07T08:31:34;14.50;99.90
43987;DHT22;29650;47.378;8.300;2023-08-07T08:34:01;14.50;99.90
43987;DHT22;29650;47.378;8.300;2023-08-07T08:36:29;14.50;99.90
43987;DHT22;29650;47.378;8.300;2023-08-07T08:38:56;14.30;99.90
43987;DHT22;29650;47.378;8.300;2023-08-07T08:41:24;14.60;99.90
43987;DHT22;29650;47.378;8.300;2023-08-07T08:43:52;14.70;99.90
43987;DHT22;29650;47.378;8.300;2023-08-07T08:46:21;14.60;99.90
43987;DHT22;29650;47.378;8.300;2023-08-07T08:48:58;14.70;99.90
43987;DHT22;29650;47.378;8.300;2023-08-07T08:51:26;14.70;99.90
43987;DHT22;29650;47.378;8.300;2023-08-07T08:53:53;14.80;99.90
43987;DHT22;29650;47.378;8.300;2023-08-07T08:56:22;14.80;99.90
43987;DHT22;29650;47.378;8.300;2023-08-07T08:58:50;14.30;99.90
43987;DHT22;29650;47.378;8.300;2023-08-07T09:01:18;14.00;99.90
43987;DHT22;29650;47.378;8.300;2023-08-07T09:03:45;14.10;99.90
43987;DHT22;29650;47.378;8.300;2023-08-07T09:06:14;14.10;99.90
43987;DHT22;29650;47.378;8.300;2023-08-07T09:08:41;14.10;99.90
43987;DHT22;29650;47.378;8.300;2023-08-07T09:11:09;14.20;99.90
43987;DHT22;29650;47.378;8.300;2023-08-07T09:13:37;14.30;99.90
43987;DHT22;29650;47.378;8.300;2023-08-07T09:16:08;14.70;99.90
43987;DHT22;29650;47.378;8.300;2023-08-07T09:18:36;15.10;99.60
43987;DHT22;29650;47.378;8.300;2023-08-07T09:21:03;15.20;97.20
43987;DHT22;29650;47.378;8.300;2023-08-07T09:23:31;15.70;98.00
43987;DHT22;29650;47.378;8.300;2023-08-07T09:26:02;15.80;96.30
43987;DHT22;29650;47.378;8.300;2023-08-07T09:28:30;16.20;96.00
43987;DHT22;29650;47.378;8.300;2023-08-07T09:30:57;16.50;92.30
43987;DHT22;29650;47.378;8.300;2023-08-07T09:33:25;16.40;90.20
43987;DHT22;29650;47.378;8.300;2023-08-07T09:35:52;16.40;87.00
43987;DHT22;29650;47.378;8.300;2023-08-07T09:38:22;16.80;85.40
43987;DHT22;29650;47.378;8.300;2023-08-07T09:40:51;16.50;77.30
43987;DHT22;29650;47.378;8.300;2023-08-07T09:43:21;16.20;77.60
43987;DHT22;29650;47.378;8.300;2023-08-07T09:45:48;16.30;81.30
43987;DHT22;29650;47.378;8.300;2023-08-07T09:48:22;15.90;78.80
43987;DHT22;29650;47.378;8.300;2023-08-07T09:50:50;15.80;80.00
43987;DHT22;29650;47.378;8.300;2023-08-07T09:53:17;15.80;76.70
43987;DHT22;29650;47.378;8.300;2023-08-07T09:55:44;15.80;77.80
43987;DHT22;29650;47.378;8.300;2023-08-07T09:58:13;15.80;78.80
43987;DHT22;29650;47.378;8.300;2023-08-07T10:00:40;15.70;80.20
43987;DHT22;29650;47.378;8.300;2023-08-07T10:03:08;15.70;79.40
43987;DHT22;29650;47.378;8.300;2023-08-07T10:05:35;15.80;79.10
43987;DHT22;29650;47.378;8.300;2023-08-07T10:08:03;16.20;78.60
43987;DHT22;29650;47.378;8.300;2023-08-07T10:10:32;16.30;77.60
43987;DHT22;29650;47.378;8.300;2023-08-07T10:13:00;16.50;74.70
43987;DHT22;29650;47.378;8.300;2023-08-07T10:15:29;17.10;71.90
43987;DHT22;29650;47.378;8.300;2023-08-07T10:17:56;16.60;69.50
43987;DHT22;29650;47.378;8.300;2023-08-07T10:20:25;17.20;69.40
43987;DHT22;29650;47.378;8.300;2023-08-07T10:22:53;16.70;64.60
43987;DHT22;29650;47.378;8.300;2023-08-07T10:25:24;17.10;66.70
43987;DHT22;29650;47.378;8.300;2023-08-07T10:27:53;16.90;64.50
43987;DHT22;29650;47.378;8.300;2023-08-07T10:30:22;17.30;63.00
43987;DHT22;29650;47.378;8.300;2023-08-07T10:32:51;17.20;62.60
43987;DHT22;29650;47.378;8.300;2023-08-07T10:35:26;17.20;61.70
43987;DHT22;29650;47.378;8.300;2023-08-07T10:38:05;17.00;65.10
43987;DHT22;29650;47.378;8.300;2023-08-07T10:40:32;16.80;66.00
43987;DHT22;29650;47.378;8.300;2023-08-07T10:43:11;16.60;65.70
43987;DHT22;29650;47.378;8.300;2023-08-07T10:45:38;16.20;67.70
43987;DHT22;29650;47.378;8.300;2023-08-07T10:48:08;16.50;66.70
43987;DHT22;29650;47.378;8.300;2023-08-07T10:50:49;16.60;67.80
43987;DHT22;29650;47.378;8.300;2023-08-07T10:53:21;16.40;67.00
43987;DHT22;29650;47.378;8.300;2023-08-07T10:55:54;16.90;64.80
43987;DHT22;29650;47.378;8.300;2023-08-07T10:58:24;17.40;63.80
43987;DHT22;29650;47.378;8.300;2023-08-07T11:00:52;17.60;58.00
43987;DHT22;29650;47.378;8.300;2023-08-07T11:03:35;17.40;58.10
43987;DHT22;29650;47.378;8.300;2023-08-07T11:06:02;17.20;56.70
43987;DHT22;29650;47.378;8.300;2023-08-07T11:08:29;17.60;54.90
43987;DHT22;29650;47.378;8.300;2023-08-07T11:10:59;17.20;46.20
43987;DHT22;29650;47.378;8.300;2023-08-07T11:13:30;17.00;47.70
43987;DHT22;29650;47.378;8.300;2023-08-07T11:15:57;17.40;48.90
43987;DHT22;29650;47.378;8.300;2023-08-07T11:18:25;17.10;41.80
43987;DHT22;29650;47.378;8.300;2023-08-07T11:20:55;17.10;40.40
43987;DHT22;29650;47.378;8.300;2023-08-07T11:23:23;17.60;42.40
43987;DHT22;29650;47.378;8.300;2023-08-07T11:25:51;17.40;43.60
43987;DHT22;29650;47.378;8.300;2023-08-07T11:28:18;17.40;47.50
43987;DHT22;29650;47.378;8.300;2023-08-07T11:30:48;17.30;48.20
43987;DHT22;29650;47.378;8.300;2023-08-07T11:33:17;17.20;47.50
43987;DHT22;29650;47.378;8.300;2023-08-07T11:35:44;17.70;49.60
43987;DHT22;29650;47.378;8.300;2023-08-07T11:38:13;17.60;47.50
43987;DHT22;29650;47.378;8.300;2023-08-07T11:40:40;18.40;47.20
43987;DHT22;29650;47.378;8.300;2023-08-07T11:43:06;18.80;44.30
43987;DHT22;29650;47.378;8.300;2023-08-07T11:45:35;18.60;41.50
43987;DHT22;29650;47.378;8.300;2023-08-07T11:48:02;18.40;40.20
43987;DHT22;29650;47.378;8.300;2023-08-07T11:50:29;18.60;41.20
43987;DHT22;29650;47.378;8.300;2023-08-07T11:52:56;18.70;41.30
43987;DHT22;29650;47.378;8.300;2023-08-07T11:55:29;18.80;41.00
43987;DHT22;29650;47.378;8.300;2023-08-07T11:57:57;19.40;42.90
43987;DHT22;29650;47.378;8.300;2023-08-07T12:00:25;19.00;42.70
43987;DHT22;29650;47.378;8.300;2023-08-07T12:02:53;18.70;41.40
43987;DHT22;29650;47.378;8.300;2023-08-07T12:05:20;18.70;43.30
43987;DHT22;29650;47.378;8.300;2023-08-07T12:07:49;18.60;43.30
43987;DHT22;29650;47.378;8.300;2023-08-07T12:10:16;18.60;44.20
43987;DHT22;29650;47.378;8.300;2023-08-07T12:12:45;18.40;45.10
43987;DHT22;29650;47.378;8.300;2023-08-07T12:15:12;18.10;46.00
43987;DHT22;29650;47.378;8.300;2023-08-07T12:17:39;18.60;47.90
43987;DHT22;29650;47.378;8.300;2023-08-07T12:20:06;18.70;47.30
43987;DHT22;29650;47.378;8.300;2023-08-07T12:22:36;19.00;47.30
43987;DHT22;29650;47.378;8.300;2023-08-07T12:25:03;18.70;43.60
43987;DHT22;29650;47.378;8.300;2023-08-07T12:27:30;18.70;45.20
43987;DHT22;29650;47.378;8.300;2023-08-07T12:29:59;18.10;48.20
43987;DHT22;29650;47.378;8.300;2023-08-07T12:32:25;18.50;49.40
43987;DHT22;29650;47.378;8.300;2023-08-07T12:34:52;18.10;48.20
43987;DHT22;29650;47.378;8.300;2023-08-07T12:37:19;18.60;48.20
43987;DHT22;29650;47.378;8.300;2023-08-07T12:39:47;18.70;45.90
43987;DHT22;29650;47.378;8.300;2023-08-07T12:42:14;19.00;45.70
43987;DHT22;29650;47.378;8.300;2023-08-07T12:44:41;18.90;45.70
43987;DHT22;29650;47.378;8.300;2023-08-07T12:47:10;19.50;45.10
43987;DHT22;29650;47.378;8.300;2023-08-07T12:49:37;19.30;39.40
43987;DHT22;29650;47.378;8.300;2023-08-07T12:52:04;18.80;37.80
43987;DHT22;29650;47.378;8.300;2023-08-07T12:54:31;19.30;40.20
43987;DHT22;29650;47.378;8.300;2023-08-07T12:56:58;19.20;36.60
43987;DHT22;29650;47.378;8.300;2023-08-07T12:59:25;19.80;38.60
43987;DHT22;29650;47.378;8.300;2023-08-07T13:01:52;19.70;37.40
43987;DHT22;29650;47.378;8.300;2023-08-07T13:04:20;18.70;36.80
43987;DHT22;29650;47.378;8.300;2023-08-07T13:06:48;19.30;37.40
43987;DHT22;29650;47.378;8.300;2023-08-07T13:09:16;19.70;38.70
43987;DHT22;29650;47.378;8.300;2023-08-07T13:11:42;19.30;37.80
43987;DHT22;29650;47.378;8.300;2023-08-07T13:14:09;19.00;39.10
43987;DHT22;29650;47.378;8.300;2023-08-07T13:16:36;18.80;39.80
43987;DHT22;29650;47.378;8.300;2023-08-07T13:19:03;19.40;41.50
43987;DHT22;29650;47.378;8.300;2023-08-07T13:21:31;19.20;41.90
43987;DHT22;29650;47.378;8.300;2023-08-07T13:23:58;18.70;41.90
43987;DHT22;29650;47.378;8.300;2023-08-07T13:26:25;18.40;43.40
43987;DHT22;29650;47.378;8.300;2023-08-07T13:28:52;18.20;44.80
43987;DHT22;29650;47.378;8.300;2023-08-07T13:31:19;18.20;45.60
43987;DHT22;29650;47.378;8.300;2023-08-07T13:33:46;18.00;47.70
43987;DHT22;29650;47.378;8.300;2023-08-07T13:36:13;17.70;49.90
43987;DHT22;29650;47.378;8.300;2023-08-07T13:38:41;17.50;56.00
43987;DHT22;29650;47.378;8.300;2023-08-07T13:41:08;17.40;64.10
43987;DHT22;29650;47.378;8.300;2023-08-07T13:43:37;17.90;66.30
43987;DHT22;29650;47.378;8.300;2023-08-07T13:46:04;18.20;66.00
43987;DHT22;29650;47.378;8.300;2023-08-07T13:48:30;18.60;64.60
43987;DHT22;29650;47.378;8.300;2023-08-07T13:50:59;18.20;52.50
43987;DHT22;29650;47.378;8.300;2023-08-07T13:53:30;19.00;52.30
43987;DHT22;29650;47.378;8.300;2023-08-07T13:55:58;18.40;53.30
43987;DHT22;29650;47.378;8.300;2023-08-07T13:58:25;18.10;54.40
43987;DHT22;29650;47.378;8.300;2023-08-07T14:00:51;17.70;54.50
43987;DHT22;29650;47.378;8.300;2023-08-07T14:03:18;17.80;55.20
43987;DHT22;29650;47.378;8.300;2023-08-07T14:05:46;17.40;60.10
43987;DHT22;29650;47.378;8.300;2023-08-07T14:08:13;16.90;66.40
43987;DHT22;29650;47.378;8.300;2023-08-07T14:10:39;16.90;69.60
43987;DHT22;29650;47.378;8.300;2023-08-07T14:13:08;17.30;69.50
43987;DHT22;29650;47.378;8.300;2023-08-07T14:15:37;17.90;71.90
43987;DHT22;29650;47.378;8.300;2023-08-07T14:18:04;18.10;66.40
43987;DHT22;29650;47.378;8.300;2023-08-07T14:20:30;18.20;65.00
43987;DHT22;29650;47.378;8.300;2023-08-07T14:22:57;18.90;67.80
43987;DHT22;29650;47.378;8.300;2023-08-07T14:25:24;18.80;63.40
43987;DHT22;29650;47.378;8.300;2023-08-07T14:27:51;19.00;58.20
43987;DHT22;29650;47.378;8.300;2023-08-07T14:30:21;19.00;51.60
43987;DHT22;29650;47.378;8.300;2023-08-07T14:32:47;18.70;45.40
43987;DHT22;29650;47.378;8.300;2023-08-07T14:35:15;19.10;46.30
43987;DHT22;29650;47.378;8.300;2023-08-07T14:37:42;19.30;45.20
43987;DHT22;29650;47.378;8.300;2023-08-07T14:40:09;19.60;43.60
43987;DHT22;29650;47.378;8.300;2023-08-07T14:42:36;18.70;40.10
43987;DHT22;29650;47.378;8.300;2023-08-07T14:45:04;19.00;41.20
43987;DHT22;29650;47.378;8.300;2023-08-07T14:47:33;19.10;41.50
43987;DHT22;29650;47.378;8.300;2023-08-07T14:49:59;19.10;40.10
43987;DHT22;29650;47.378;8.300;2023-08-07T14:52:26;19.70;40.10
43987;DHT22;29650;47.378;8.300;2023-08-07T14:54:53;19.60;39.50
43987;DHT22;29650;47.378;8.300;2023-08-07T14:57:23;19.40;41.00
43987;DHT22;29650;47.378;8.300;2023-08-07T14:59:50;18.90;38.60
43987;DHT22;29650;47.378;8.300;2023-08-07T15:02:17;18.90;40.00
43987;DHT22;29650;47.378;8.300;2023-08-07T15:04:45;18.50;40.00
43987;DHT22;29650;47.378;8.300;2023-08-07T15:07:12;18.70;40.80
43987;DHT22;29650;47.378;8.300;2023-08-07T15:09:39;18.50;42.50
43987;DHT22;29650;47.378;8.300;2023-08-07T15:12:07;19.00;43.70
43987;DHT22;29650;47.378;8.300;2023-08-07T15:14:34;19.30;42.60
43987;DHT22;29650;47.378;8.300;2023-08-07T15:17:02;19.10;42.30
43987;DHT22;29650;47.378;8.300;2023-08-07T15:19:29;19.30;42.70
43987;DHT22;29650;47.378;8.300;2023-08-07T15:21:57;19.60;43.10
43987;DHT22;29650;47.378;8.300;2023-08-07T15:24:24;19.40;41.60
43987;DHT22;29650;47.378;8.300;2023-08-07T15:26:51;19.90;39.40
43987;DHT22;29650;47.378;8.300;2023-08-07T15:29:17;20.10;38.50
43987;DHT22;29650;47.378;8.300;2023-08-07T15:31:44;20.20;38.00
43987;DHT22;29650;47.378;8.300;2023-08-07T15:34:11;19.40;37.40